Ana Sayfa
METAR-TAF:

METAR-TAF

Havaalanları :

Matsuyama, Japonya

Enlem: 33-49N, Boylam: 132-42E, yükseklik: 4 m

Güncel hava durumu gözlemi

Rapor saat 07:00 UTC de 33 dakika önce yapıldı.
Rüzgar batıdan 17 kt
Sıcaklık 11°C
Nem 54%
Basınç 1013 hPa
Görüş mesafesi 10 km veya daha fazla
3000 ft yükseklikte az bulutlu
parçalı çok bulutlu

METAR: RJOM 010700Z 26017KT 9999 FEW030 BKN/// 11/02 Q1013

Saat: 16:33 (07:33 UTC)

Tahmin

Rapor saat 05:05 UTC de 2 saat ve 28 dakika önce yapıldı.
Ayın 01'si saat 06 UTC'den ayın 02'si saat 12 UTC'ye kadar geçerli Tahmin
Rüzgar batı/kuzeybatıdan 18 kt
Görüş mesafesi 10 km veya daha fazla
2500 ft yükseklikte az bulutlu
5000 ft yükseklikte parçalı bulutlu
Dönüşüyor
ayın 02'si saat 03 UTC'den ayın 02'si saat 06 UTC'ye kadar
Rüzgar batıdan 6 kt

TAF: RJOM 010505Z 0106/0212 30018KT 9999 FEW025 SCT050 BECMG 0203/0206 27006KT

4.000'den fazla havaalanı için hava durumu gözlemleri ve tahminleri (METAR ve TAF raporları).

Kullanılabilir istasyonlar harita üzerinde sarı ve kırmızı noktalarla gösterilir.

İstasyonun adını görmek için fareyi noktanın üzerinde gezdirin.

Sonrasında hava gözlem ve tahminlerini görmek için tıklayın.

Haritayı değiştirmek için: yaklaştırmak için siyah artı işaretli yeşil düğmeye ve uzaklaştırmak için de eksi işaretli düğmeye hızla tıklayın; bitişik haritalar için yeşil okları kullanın.


METAR-TAF: